createdAt,value
2023-03-27T00:01:57.378Z,36.92
2023-03-27T00:04:26.474Z,36.93
2023-03-27T00:06:56.134Z,37.02
2023-03-27T00:09:24.360Z,37.00
2023-03-27T00:12:03.828Z,37.04
2023-03-27T00:14:34.898Z,37.08
2023-03-27T00:17:04.210Z,37.16
2023-03-27T00:19:52.446Z,37.25
2023-03-27T00:22:21.680Z,37.26
2023-03-27T00:24:51.051Z,37.29
2023-03-27T00:27:22.091Z,37.38
2023-03-27T00:29:50.664Z,37.40
2023-03-27T00:32:18.957Z,37.29
2023-03-27T00:34:47.332Z,37.37
2023-03-27T00:37:16.549Z,37.37
2023-03-27T00:39:50.265Z,37.46
2023-03-27T00:42:23.127Z,37.50
2023-03-27T00:44:53.041Z,37.62
2023-03-27T00:47:36.089Z,37.52
2023-03-27T00:50:09.160Z,37.46
2023-03-27T00:52:39.487Z,37.49
2023-03-27T00:55:11.005Z,37.40
2023-03-27T00:57:42.076Z,37.33
2023-03-27T01:00:13.882Z,37.33
2023-03-27T01:02:48.036Z,37.42
2023-03-27T01:05:17.407Z,37.43
2023-03-27T01:08:00.791Z,37.48
2023-03-27T01:10:57.601Z,37.46
2023-03-27T01:14:07.703Z,37.51
2023-03-27T01:16:41.091Z,37.59
2023-03-27T01:19:47.491Z,37.70
2023-03-27T01:22:42.827Z,37.63
2023-03-27T01:25:30.772Z,37.74
2023-03-27T01:28:03.010Z,37.68
2023-03-27T01:30:46.777Z,37.63
2023-03-27T01:33:51.551Z,37.66
2023-03-27T01:36:32.129Z,37.72
2023-03-27T01:39:13.531Z,37.64
2023-03-27T01:41:42.254Z,37.74
2023-03-27T01:44:19.799Z,37.77
2023-03-27T01:46:56.740Z,37.84
2023-03-27T01:49:31.269Z,37.83
2023-03-27T01:52:02.253Z,37.94
2023-03-27T01:54:35.440Z,37.88
2023-03-27T01:57:20.421Z,37.91
2023-03-27T01:59:53.985Z,37.86
2023-03-27T02:02:26.969Z,37.89
2023-03-27T02:05:15.619Z,38.05
2023-03-27T02:07:51.644Z,38.13
2023-03-27T02:10:23.583Z,37.96
2023-03-27T02:12:58.717Z,37.94
2023-03-27T02:15:31.971Z,38.01
2023-03-27T02:18:05.416Z,38.00
2023-03-27T02:20:34.494Z,37.92
2023-03-27T02:23:03.292Z,37.95
2023-03-27T02:25:39.089Z,37.99
2023-03-27T02:28:21.157Z,38.00
2023-03-27T02:31:06.811Z,38.03
2023-03-27T02:33:51.462Z,37.99
2023-03-27T02:36:29.978Z,37.98
2023-03-27T02:39:02.326Z,37.97
2023-03-27T02:41:37.763Z,38.03
2023-03-27T02:44:51.787Z,38.08
2023-03-27T02:47:24.088Z,38.02
2023-03-27T02:49:54.112Z,38.12
2023-03-27T02:52:29.692Z,38.07
2023-03-27T02:55:06.869Z,38.15
2023-03-27T02:57:40.193Z,38.15
2023-03-27T03:00:28.083Z,38.20
2023-03-27T03:03:28.339Z,38.19
2023-03-27T03:06:11.486Z,38.29
2023-03-27T03:08:41.269Z,38.22
2023-03-27T03:11:12.175Z,38.19
2023-03-27T03:13:43.450Z,38.06
2023-03-27T03:16:12.086Z,38.10
2023-03-27T03:18:41.495Z,38.18
2023-03-27T03:21:12.245Z,38.09
2023-03-27T03:23:41.758Z,38.16
2023-03-27T03:26:32.344Z,38.19
2023-03-27T03:29:01.830Z,38.24
2023-03-27T03:31:43.607Z,38.12
2023-03-27T03:34:16.911Z,38.11
2023-03-27T03:36:49.843Z,38.14
2023-03-27T03:39:25.144Z,38.03
2023-03-27T03:41:55.691Z,38.02
2023-03-27T03:44:24.219Z,37.94
2023-03-27T03:46:52.646Z,38.14
2023-03-27T03:49:23.166Z,38.07
2023-03-27T03:52:03.940Z,38.00
2023-03-27T03:54:34.092Z,38.19
2023-03-27T03:57:03.463Z,38.28
2023-03-27T03:59:34.152Z,38.24
2023-03-27T04:02:31.442Z,37.84
2023-03-27T04:05:11.853Z,37.44
2023-03-27T04:07:41.281Z,36.88
2023-03-27T04:10:32.759Z,36.29
2023-03-27T04:13:04.218Z,35.55
2023-03-27T04:15:37.137Z,34.91
2023-03-27T04:18:08.413Z,34.32
2023-03-27T04:20:37.648Z,33.67
2023-03-27T04:23:08.492Z,32.90
2023-03-27T04:25:40.425Z,32.17
2023-03-27T04:28:10.478Z,31.43
2023-03-27T04:30:44.891Z,30.58
2023-03-27T04:33:23.311Z,29.92
2023-03-27T04:36:06.397Z,29.16
2023-03-27T04:39:03.834Z,28.29
2023-03-27T04:41:38.786Z,27.68
2023-03-27T04:44:07.295Z,27.11
2023-03-27T04:46:36.482Z,26.67
2023-03-27T04:49:09.384Z,26.21
2023-03-27T04:51:53.250Z,25.55
2023-03-27T04:54:25.031Z,24.91
2023-03-27T04:58:09.509Z,25.65
2023-03-27T05:00:40.518Z,23.86
2023-03-27T05:03:40.068Z,23.08
2023-03-27T05:06:12.211Z,22.60
2023-03-27T05:08:41.090Z,22.06
2023-03-27T05:11:14.379Z,21.58
2023-03-27T05:13:45.653Z,21.23
2023-03-27T05:16:14.091Z,20.70
2023-03-27T05:18:44.849Z,20.28
2023-03-27T05:21:15.424Z,19.90
2023-03-27T05:23:42.834Z,19.70
2023-03-27T05:26:10.136Z,19.40
2023-03-27T05:28:53.814Z,18.99
2023-03-27T05:31:21.932Z,18.78
2023-03-27T05:33:58.982Z,18.41
2023-03-27T05:36:29.393Z,18.40
2023-03-27T05:38:57.486Z,18.07
2023-03-27T05:41:40.745Z,18.09
2023-03-27T05:44:08.773Z,18.06
2023-03-27T05:46:40.699Z,17.78
2023-03-27T05:49:13.461Z,17.82
2023-03-27T05:51:47.143Z,17.81
2023-03-27T05:54:20.338Z,17.53
2023-03-27T05:56:52.863Z,17.72
2023-03-27T05:59:21.089Z,17.54
2023-03-27T06:01:48.972Z,17.40
2023-03-27T06:04:21.661Z,17.28
2023-03-27T06:07:04.050Z,17.13
2023-03-27T06:09:32.355Z,17.15
2023-03-27T06:12:23.649Z,16.99
2023-03-27T06:15:11.177Z,17.13
2023-03-27T06:17:48.343Z,17.34
2023-03-27T06:20:17.011Z,17.58
2023-03-27T06:22:56.804Z,17.74
2023-03-27T06:25:34.650Z,17.82
2023-03-27T06:28:07.267Z,17.76
2023-03-27T06:30:41.166Z,17.90
2023-03-27T06:33:42.766Z,18.48
2023-03-27T06:36:21.518Z,18.76
2023-03-27T06:38:52.170Z,18.82
2023-03-27T06:41:20.392Z,19.09
2023-03-27T06:44:10.316Z,19.20
2023-03-27T06:47:02.283Z,19.30
2023-03-27T06:49:52.780Z,19.49
2023-03-27T06:52:24.107Z,19.60
2023-03-27T06:54:56.895Z,19.77
2023-03-27T06:57:28.182Z,20.02
2023-03-27T07:00:01.648Z,21.13
2023-03-27T07:02:50.349Z,21.33
2023-03-27T07:05:39.188Z,20.50
2023-03-27T07:08:22.365Z,20.35
2023-03-27T07:13:25.833Z,20.64
2023-03-27T07:15:55.216Z,19.88
2023-03-27T07:18:25.186Z,19.66
2023-03-27T07:20:56.003Z,19.76
2023-03-27T07:23:25.703Z,20.05
2023-03-27T07:25:58.905Z,19.58
2023-03-27T07:28:44.686Z,19.36
2023-03-27T07:31:31.496Z,19.91
2023-03-27T07:34:03.608Z,20.22
2023-03-27T07:37:03.087Z,20.32
2023-03-27T07:39:34.257Z,20.31
2023-03-27T07:42:03.429Z,20.31
2023-03-27T07:44:43.170Z,20.45
2023-03-27T07:47:12.675Z,20.39
2023-03-27T07:49:42.297Z,20.40
2023-03-27T07:52:16.606Z,20.04
2023-03-27T07:54:57.204Z,20.34
2023-03-27T07:57:33.061Z,20.89
2023-03-27T08:00:11.788Z,20.62
2023-03-27T08:02:51.493Z,21.03
2023-03-27T08:05:19.844Z,21.31
2023-03-27T08:07:56.001Z,21.11
2023-03-27T08:10:43.155Z,21.06
2023-03-27T08:13:13.188Z,21.49
2023-03-27T08:15:41.611Z,21.63
2023-03-27T08:18:20.582Z,21.67
2023-03-27T08:20:50.118Z,21.39
2023-03-27T08:23:18.281Z,21.39
2023-03-27T08:26:26.894Z,21.70
2023-03-27T08:29:00.704Z,21.76
2023-03-27T08:31:31.597Z,21.93
2023-03-27T08:34:02.120Z,21.83
2023-03-27T08:36:52.869Z,21.83
2023-03-27T08:39:23.039Z,21.87
2023-03-27T08:42:01.613Z,21.96
2023-03-27T08:44:33.583Z,21.82
2023-03-27T08:47:17.423Z,21.20
2023-03-27T08:49:58.304Z,21.32
2023-03-27T08:52:32.200Z,21.25
2023-03-27T08:55:19.041Z,21.10
2023-03-27T08:58:12.318Z,21.21
2023-03-27T09:00:42.726Z,21.39
2023-03-27T09:03:28.164Z,21.64
2023-03-27T09:05:59.306Z,21.54
2023-03-27T09:08:41.082Z,21.99
2023-03-27T09:11:16.132Z,21.76
2023-03-27T09:13:52.138Z,21.83
2023-03-27T09:16:23.531Z,21.90
2023-03-27T09:19:04.229Z,21.71
2023-03-27T09:22:06.031Z,21.81
2023-03-27T09:24:57.009Z,21.62
2023-03-27T09:27:33.808Z,21.42
2023-03-27T09:30:29.339Z,21.39
2023-03-27T09:33:04.017Z,21.44
2023-03-27T09:35:33.391Z,21.55
2023-03-27T09:38:04.193Z,21.66
2023-03-27T09:40:54.969Z,21.94
2023-03-27T09:43:41.816Z,21.93
2023-03-27T09:46:11.645Z,21.56
2023-03-27T09:48:58.430Z,21.68
2023-03-27T09:51:42.687Z,21.65
2023-03-27T09:54:18.493Z,21.78
2023-03-27T09:56:48.831Z,21.82
2023-03-27T09:59:33.305Z,22.01
2023-03-27T10:02:22.490Z,21.70
2023-03-27T10:05:17.512Z,21.88
2023-03-27T10:07:48.442Z,21.63
2023-03-27T10:10:20.052Z,21.51
2023-03-27T10:21:12.351Z,21.10
2023-03-27T10:23:46.448Z,21.00
2023-03-27T10:26:27.310Z,20.90
2023-03-27T10:28:59.562Z,20.86
2023-03-27T10:31:38.486Z,20.81
2023-03-27T10:34:29.092Z,20.71
2023-03-27T10:37:28.799Z,20.64
2023-03-27T10:40:17.445Z,20.44
2023-03-27T10:42:46.814Z,20.32
2023-03-27T10:45:16.926Z,20.69
2023-03-27T10:47:47.578Z,20.56
2023-03-27T10:50:53.382Z,20.41
2023-03-27T10:53:43.068Z,20.41
2023-03-27T10:56:39.594Z,20.11
2023-03-27T10:59:16.869Z,20.19
2023-03-27T11:01:56.255Z,20.33
2023-03-27T11:04:45.273Z,20.48
2023-03-27T11:07:38.047Z,20.11
2023-03-27T11:10:25.388Z,20.04
2023-03-27T11:13:04.792Z,20.29
2023-03-27T11:15:39.783Z,20.11
2023-03-27T11:18:28.873Z,19.64
2023-03-27T11:21:23.299Z,19.62
2023-03-27T11:24:01.810Z,19.32
2023-03-27T11:26:38.360Z,19.41
2023-03-27T11:29:21.312Z,19.54
2023-03-27T11:31:53.116Z,19.64
2023-03-27T11:34:54.519Z,19.35
2023-03-27T11:37:43.178Z,19.67
2023-03-27T11:40:20.492Z,20.01
2023-03-27T11:42:51.745Z,20.12
2023-03-27T11:45:27.772Z,20.39
2023-03-27T11:48:25.835Z,20.43
2023-03-27T11:51:13.053Z,20.23
2023-03-27T11:54:12.165Z,20.42
2023-03-27T11:57:02.561Z,20.37
2023-03-27T12:00:16.500Z,20.52
2023-03-27T12:03:07.044Z,20.72
2023-03-27T12:05:55.451Z,20.88
2023-03-27T12:09:10.222Z,20.81
2023-03-27T12:12:00.551Z,20.55
2023-03-27T12:14:40.976Z,20.55
2023-03-27T12:17:24.229Z,20.69
2023-03-27T12:20:09.593Z,20.56
2023-03-27T12:22:44.026Z,20.74
2023-03-27T12:25:38.806Z,20.80
2023-03-27T12:29:23.592Z,20.56
2023-03-27T12:32:32.152Z,20.65
2023-03-27T12:35:06.589Z,20.79
2023-03-27T12:37:45.041Z,20.43
2023-03-27T12:40:40.680Z,20.18
2023-03-27T12:43:21.128Z,20.13
2023-03-27T12:46:07.496Z,19.94
2023-03-27T12:48:56.296Z,20.13
2023-03-27T12:51:44.030Z,20.07
2023-03-27T12:54:22.019Z,20.12
2023-03-27T12:57:11.090Z,20.22
2023-03-27T12:59:50.873Z,20.13
2023-03-27T13:02:34.986Z,20.00
2023-03-27T13:05:24.193Z,20.06
2023-03-27T13:08:15.886Z,20.02
2023-03-27T13:11:50.268Z,19.80
2023-03-27T13:14:30.828Z,19.27
2023-03-27T13:17:36.869Z,19.44
2023-03-27T13:21:00.146Z,19.24
2023-03-27T13:23:50.110Z,19.48
2023-03-27T13:26:45.315Z,19.73
2023-03-27T13:29:24.567Z,19.80
2023-03-27T13:32:26.405Z,19.86
2023-03-27T13:35:22.081Z,19.93
2023-03-27T13:37:51.951Z,19.92
2023-03-27T13:40:35.455Z,19.93
2023-03-27T13:43:28.480Z,20.05
2023-03-27T13:46:19.344Z,20.37
2023-03-27T13:49:32.682Z,20.41
2023-03-27T13:52:44.521Z,20.55
2023-03-27T13:55:36.955Z,20.43
2023-03-27T13:58:59.401Z,20.72
2023-03-27T14:01:42.594Z,20.82
2023-03-27T14:04:23.508Z,20.85
2023-03-27T14:07:39.289Z,20.88
2023-03-27T14:10:23.311Z,20.83
2023-03-27T14:13:41.664Z,21.01
2023-03-27T14:16:30.123Z,21.13
2023-03-27T14:19:23.375Z,21.16
2023-03-27T14:21:56.299Z,21.30
2023-03-27T14:24:36.109Z,21.37
2023-03-27T14:27:14.356Z,21.53
2023-03-27T14:29:45.239Z,21.62
2023-03-27T14:32:17.615Z,21.94
2023-03-27T14:35:04.660Z,22.43
2023-03-27T14:37:45.150Z,22.79
2023-03-27T14:40:43.017Z,22.74
2023-03-27T14:43:13.826Z,22.66
2023-03-27T14:45:43.455Z,23.22
2023-03-27T14:48:34.747Z,23.41
2023-03-27T14:51:07.707Z,23.50
2023-03-27T14:53:44.342Z,23.71
2023-03-27T14:56:28.120Z,23.66
2023-03-27T14:59:02.274Z,24.01
2023-03-27T15:01:41.531Z,23.91
2023-03-27T15:04:11.739Z,24.13
2023-03-27T15:06:41.687Z,24.42
2023-03-27T15:09:19.478Z,24.43
2023-03-27T15:12:23.467Z,24.57
2023-03-27T15:14:59.420Z,24.57
2023-03-27T15:17:29.088Z,24.88
2023-03-27T15:20:10.449Z,25.01
2023-03-27T15:22:42.143Z,25.21
2023-03-27T15:25:19.684Z,25.32
2023-03-27T15:27:53.025Z,25.38
2023-03-27T15:30:27.254Z,25.26
2023-03-27T15:32:56.859Z,25.41
2023-03-27T15:35:34.557Z,25.72
2023-03-27T15:38:04.547Z,25.67
2023-03-27T15:40:43.230Z,25.60
2023-03-27T15:43:14.583Z,25.87
2023-03-27T15:45:52.378Z,25.81
2023-03-27T15:48:23.248Z,26.19
2023-03-27T15:51:04.809Z,26.33
2023-03-27T15:53:41.533Z,26.48
2023-03-27T15:56:35.004Z,26.60
2023-03-27T15:59:05.726Z,26.84
2023-03-27T16:01:34.847Z,26.99
2023-03-27T16:04:08.983Z,26.97
2023-03-27T16:06:40.942Z,27.05
2023-03-27T16:09:38.702Z,27.19
2023-03-27T16:12:10.490Z,27.40
2023-03-27T16:19:18.432Z,27.77
2023-03-27T16:29:51.256Z,28.26
2023-03-27T16:32:19.644Z,28.43
2023-03-27T16:34:52.752Z,28.39
2023-03-27T16:37:21.736Z,28.45
2023-03-27T16:39:49.612Z,28.46
2023-03-27T16:42:17.807Z,28.57
2023-03-27T16:44:45.139Z,28.47
2023-03-27T16:47:13.432Z,28.58
2023-03-27T16:49:40.670Z,28.70
2023-03-27T16:52:09.366Z,28.74
2023-03-27T16:54:37.119Z,28.70
2023-03-27T16:57:04.414Z,28.81
2023-03-27T16:59:32.086Z,28.83
2023-03-27T17:02:00.145Z,28.68
2023-03-27T17:04:28.012Z,28.74
2023-03-27T17:06:55.603Z,28.73
2023-03-27T17:09:22.921Z,28.74
2023-03-27T17:11:50.008Z,28.74
2023-03-27T17:16:01.345Z,30.67
2023-03-27T17:18:29.674Z,29.23
2023-03-27T17:20:58.236Z,29.03
2023-03-27T17:23:29.354Z,28.86
2023-03-27T17:26:03.057Z,28.90
2023-03-27T17:28:31.652Z,28.99
2023-03-27T17:31:04.551Z,29.06
2023-03-27T17:33:34.208Z,29.09
2023-03-27T17:36:08.799Z,29.06
2023-03-27T17:38:37.302Z,29.14
2023-03-27T17:41:07.473Z,29.20
2023-03-27T17:43:40.459Z,29.15
2023-03-27T17:46:08.761Z,29.29
2023-03-27T17:48:37.150Z,29.19
2023-03-27T17:51:10.923Z,29.24
2023-03-27T17:53:39.187Z,29.20
2023-03-27T17:56:09.129Z,29.14
2023-03-27T17:58:38.125Z,29.20
2023-03-27T18:01:21.427Z,29.11
2023-03-27T18:03:50.463Z,28.82
2023-03-27T18:06:19.759Z,28.70
2023-03-27T18:08:48.337Z,28.55
2023-03-27T18:11:22.912Z,28.43
2023-03-27T18:13:53.637Z,28.28
2023-03-27T18:16:23.454Z,28.31
2023-03-27T18:18:55.386Z,28.29
2023-03-27T18:21:24.029Z,28.40
2023-03-27T18:23:59.762Z,28.31
2023-03-27T18:26:28.262Z,28.23
2023-03-27T18:29:04.052Z,28.30
2023-03-27T18:31:37.400Z,28.15
2023-03-27T18:34:08.210Z,28.14
2023-03-27T18:36:40.550Z,28.24
2023-03-27T18:39:08.918Z,28.17
2023-03-27T18:41:39.874Z,28.17
2023-03-27T18:44:08.349Z,28.25
2023-03-27T18:46:39.085Z,28.19
2023-03-27T18:49:21.440Z,27.98
2023-03-27T18:51:53.560Z,27.94
2023-03-27T18:54:22.256Z,27.93
2023-03-27T18:56:52.273Z,28.02
2023-03-27T18:59:20.901Z,28.45
2023-03-27T19:01:49.493Z,28.59
2023-03-27T19:04:20.788Z,28.70
2023-03-27T19:06:49.213Z,28.40
2023-03-27T19:09:18.698Z,28.36
2023-03-27T19:11:47.260Z,28.60
2023-03-27T19:14:41.856Z,28.80
2023-03-27T19:17:41.504Z,28.99
2023-03-27T19:20:28.941Z,29.26
2023-03-27T19:23:18.181Z,29.59
2023-03-27T19:25:51.468Z,29.87
2023-03-27T19:28:20.404Z,29.82
2023-03-27T19:30:51.993Z,30.08
2023-03-27T19:33:21.940Z,30.23
2023-03-27T19:35:52.779Z,30.44
2023-03-27T19:38:22.070Z,30.64
2023-03-27T19:40:52.884Z,30.69
2023-03-27T19:43:26.625Z,30.85
2023-03-27T19:46:08.394Z,30.87
2023-03-27T19:48:45.833Z,30.90
2023-03-27T19:51:23.032Z,30.96
2023-03-27T19:53:55.670Z,31.06
2023-03-27T19:56:26.725Z,31.14
2023-03-27T19:58:56.333Z,31.02
2023-03-27T20:01:28.673Z,31.03
2023-03-27T20:03:58.434Z,30.99
2023-03-27T20:06:29.069Z,31.03
2023-03-27T20:09:01.936Z,31.20
2023-03-27T20:11:30.414Z,31.19
2023-03-27T20:13:58.784Z,31.21
2023-03-27T20:16:28.097Z,31.29
2023-03-27T20:19:06.344Z,31.33
2023-03-27T20:21:39.900Z,31.36
2023-03-27T20:24:12.705Z,31.34
2023-03-27T20:26:43.215Z,31.36
2023-03-27T20:29:19.172Z,31.42
2023-03-27T20:31:48.506Z,31.51
2023-03-27T20:34:20.493Z,31.47
2023-03-27T20:36:53.415Z,31.57
2023-03-27T20:39:34.409Z,31.64
2023-03-27T20:42:02.938Z,31.63
2023-03-27T20:44:38.076Z,31.84
2023-03-27T20:47:11.411Z,31.89
2023-03-27T20:49:43.069Z,31.85
2023-03-27T20:52:14.311Z,31.68
2023-03-27T20:54:42.724Z,31.75
2023-03-27T20:57:12.498Z,31.65
2023-03-27T20:59:41.308Z,31.62
2023-03-27T21:02:15.132Z,31.62
2023-03-27T21:04:43.700Z,31.69
2023-03-27T21:07:12.301Z,32.02
2023-03-27T21:09:44.711Z,32.42
2023-03-27T21:12:13.049Z,32.73
2023-03-27T21:14:41.326Z,32.74
2023-03-27T21:17:14.132Z,32.76
2023-03-27T21:19:42.792Z,32.73
2023-03-27T21:26:45.572Z,33.10
2023-03-27T21:29:17.745Z,33.41
2023-03-27T21:31:47.100Z,33.73
2023-03-27T21:34:15.892Z,33.89
2023-03-27T21:36:44.401Z,34.40
2023-03-27T21:39:12.896Z,34.44
2023-03-27T21:41:41.316Z,34.57
2023-03-27T21:44:11.144Z,34.98
2023-03-27T21:46:39.968Z,35.00
2023-03-27T21:49:08.638Z,34.72
2023-03-27T21:51:37.447Z,34.48
2023-03-27T21:54:12.033Z,34.48
2023-03-27T21:56:41.471Z,34.25
2023-03-27T21:59:10.492Z,34.12
2023-03-27T22:01:40.999Z,34.25
2023-03-27T22:04:09.820Z,34.10
2023-03-27T22:06:38.812Z,34.12
2023-03-27T22:09:08.869Z,34.21
2023-03-27T22:11:37.298Z,34.27
2023-03-27T22:14:10.674Z,34.10
2023-03-27T22:16:41.280Z,33.94
2023-03-27T22:19:11.076Z,34.06
2023-03-27T22:21:41.894Z,34.10
2023-03-27T22:24:10.215Z,34.09
2023-03-27T22:26:39.492Z,34.09
2023-03-27T22:29:14.155Z,34.17
2023-03-27T22:31:44.014Z,34.07
2023-03-27T22:34:12.554Z,34.00
2023-03-27T22:36:41.856Z,34.13
2023-03-27T22:39:10.334Z,33.96
2023-03-27T22:41:39.262Z,33.99
2023-03-27T22:44:08.524Z,34.03
2023-03-27T22:46:38.063Z,33.73
2023-03-27T22:49:06.870Z,33.67
2023-03-27T22:51:35.934Z,33.73
2023-03-27T22:54:11.298Z,33.59
2023-03-27T22:56:39.850Z,33.39
2023-03-27T22:59:09.049Z,33.20
2023-03-27T23:01:38.154Z,33.30
2023-03-27T23:04:06.940Z,33.36
2023-03-27T23:06:35.746Z,33.37
2023-03-27T23:09:04.614Z,33.36
2023-03-27T23:11:33.193Z,33.43
2023-03-27T23:14:04.844Z,33.52
2023-03-27T23:16:33.858Z,33.50
2023-03-27T23:19:02.636Z,33.63
2023-03-27T23:21:31.164Z,33.70
2023-03-27T23:23:59.593Z,33.63
2023-03-27T23:26:28.049Z,33.75
2023-03-27T23:28:56.315Z,33.80
2023-03-27T23:31:24.888Z,34.02
2023-03-27T23:33:53.530Z,34.27
2023-03-27T23:36:23.561Z,34.21
2023-03-27T23:38:53.281Z,34.21
2023-03-27T23:41:21.772Z,34.20
2023-03-27T23:43:50.213Z,34.15
2023-03-27T23:46:20.683Z,34.29
2023-03-27T23:48:49.206Z,34.27
2023-03-27T23:51:17.720Z,34.22
2023-03-27T23:53:49.479Z,34.15
2023-03-27T23:56:18.049Z,34.20
2023-03-27T23:58:46.657Z,34.22
